createdAt,value
2023-03-15T00:01:14.910Z,61.35
2023-03-15T00:03:42.349Z,61.46
2023-03-15T00:06:10.661Z,60.99
2023-03-15T00:08:38.320Z,61.96
2023-03-15T00:11:06.802Z,61.23
2023-03-15T00:13:34.570Z,62.32
2023-03-15T00:16:03.614Z,62.46
2023-03-15T00:18:33.045Z,61.64
2023-03-15T00:21:00.512Z,61.84
2023-03-15T00:23:29.327Z,61.99
2023-03-15T00:25:56.588Z,62.64
2023-03-15T00:28:24.024Z,62.37
2023-03-15T00:31:04.369Z,62.46
2023-03-15T00:33:35.599Z,63.03
2023-03-15T00:36:05.304Z,62.39
2023-03-15T00:38:34.008Z,63.50
2023-03-15T00:41:05.947Z,63.20
2023-03-15T00:43:33.830Z,62.86
2023-03-15T00:46:01.231Z,63.17
2023-03-15T00:48:29.640Z,62.95
2023-03-15T00:51:07.801Z,64.18
2023-03-15T00:53:35.841Z,63.51
2023-03-15T00:56:06.690Z,63.57
2023-03-15T00:58:34.412Z,64.42
2023-03-15T01:01:06.040Z,64.20
2023-03-15T01:03:36.341Z,64.77
2023-03-15T01:06:10.599Z,64.41
2023-03-15T01:08:37.990Z,64.09
2023-03-15T01:11:08.684Z,64.29
2023-03-15T01:13:36.836Z,64.54
2023-03-15T01:16:05.684Z,65.04
2023-03-15T01:18:33.186Z,64.89
2023-03-15T01:21:00.699Z,65.29
2023-03-15T01:23:29.259Z,65.06
2023-03-15T01:26:00.359Z,66.13
2023-03-15T01:28:28.291Z,65.34
2023-03-15T01:30:58.913Z,65.87
2023-03-15T01:33:27.462Z,66.06
2023-03-15T01:36:02.333Z,65.42
2023-03-15T01:38:32.978Z,65.81
2023-03-15T01:41:00.479Z,66.45
2023-03-15T01:43:29.346Z,66.51
2023-03-15T01:46:05.981Z,66.81
2023-03-15T01:48:39.802Z,65.93
2023-03-15T01:51:14.060Z,66.93
2023-03-15T01:53:47.541Z,66.11
2023-03-15T01:56:15.976Z,66.81
2023-03-15T01:58:46.494Z,66.58
2023-03-15T02:01:15.653Z,66.51
2023-03-15T02:03:49.695Z,66.32
2023-03-15T02:06:19.214Z,66.55
2023-03-15T02:08:59.707Z,66.57
2023-03-15T02:11:33.941Z,67.12
2023-03-15T02:14:04.199Z,66.81
2023-03-15T02:16:31.752Z,66.58
2023-03-15T02:19:05.108Z,67.41
2023-03-15T02:21:42.790Z,66.87
2023-03-15T02:24:23.286Z,67.11
2023-03-15T02:26:54.494Z,67.11
2023-03-15T02:29:26.629Z,67.79
2023-03-15T02:31:55.455Z,67.35
2023-03-15T02:34:25.740Z,66.83
2023-03-15T02:36:54.273Z,67.47
2023-03-15T02:39:23.105Z,66.85
2023-03-15T02:41:53.857Z,67.78
2023-03-15T02:44:27.493Z,67.53
2023-03-15T02:46:57.403Z,67.41
2023-03-15T02:49:28.155Z,67.11
2023-03-15T02:51:55.687Z,67.53
2023-03-15T02:54:22.914Z,67.25
2023-03-15T02:56:50.537Z,67.20
2023-03-15T02:59:18.021Z,68.26
2023-03-15T03:01:46.763Z,67.71
2023-03-15T03:04:14.150Z,67.36
2023-03-15T03:06:44.117Z,67.29
2023-03-15T03:09:13.928Z,67.87
2023-03-15T03:11:42.906Z,68.16
2023-03-15T03:14:14.267Z,67.82
2023-03-15T03:16:45.340Z,67.28
2023-03-15T03:19:14.463Z,67.51
2023-03-15T03:21:43.831Z,68.17
2023-03-15T03:24:16.286Z,67.72
2023-03-15T03:26:46.354Z,67.80
2023-03-15T03:29:18.165Z,67.69
2023-03-15T03:31:48.062Z,68.17
2023-03-15T03:34:17.516Z,68.06
2023-03-15T03:36:44.899Z,67.90
2023-03-15T03:39:15.643Z,68.05
2023-03-15T03:41:44.274Z,67.87
2023-03-15T03:44:13.171Z,68.25
2023-03-15T03:46:42.021Z,67.76
2023-03-15T03:49:09.385Z,68.24
2023-03-15T03:51:38.183Z,68.33
2023-03-15T03:54:05.722Z,68.45
2023-03-15T03:56:33.135Z,68.34
2023-03-15T03:59:00.583Z,68.43
2023-03-15T04:01:42.344Z,67.55
2023-03-15T04:04:14.322Z,68.51
2023-03-15T04:06:46.035Z,68.00
2023-03-15T04:09:16.844Z,68.61
2023-03-15T04:11:46.907Z,68.09
2023-03-15T04:14:15.761Z,67.90
2023-03-15T04:16:45.505Z,68.19
2023-03-15T04:19:16.869Z,68.10
2023-03-15T04:21:47.596Z,68.61
2023-03-15T04:24:39.955Z,68.63
2023-03-15T04:27:07.573Z,68.27
2023-03-15T04:29:53.079Z,68.14
2023-03-15T04:32:42.719Z,68.56
2023-03-15T04:35:37.427Z,68.31
2023-03-15T04:38:26.987Z,68.87
2023-03-15T04:41:11.001Z,68.48
2023-03-15T04:43:47.912Z,68.25
2023-03-15T04:46:44.297Z,68.20
2023-03-15T04:49:19.411Z,68.53
2023-03-15T04:51:49.659Z,68.42
2023-03-15T04:54:30.070Z,67.93
2023-03-15T04:57:30.380Z,67.99
2023-03-15T05:00:14.471Z,68.45
2023-03-15T05:03:05.045Z,67.59
2023-03-15T05:05:50.930Z,68.11
2023-03-15T05:08:29.716Z,67.54
2023-03-15T05:11:16.460Z,66.89
2023-03-15T05:13:51.334Z,66.76
2023-03-15T05:16:44.931Z,66.55
2023-03-15T05:19:35.633Z,66.48
2023-03-15T05:22:26.059Z,66.62
2023-03-15T05:24:56.376Z,67.20
2023-03-15T05:28:04.634Z,67.15
2023-03-15T05:30:55.294Z,66.06
2023-03-15T05:33:33.929Z,66.89
2023-03-15T05:36:34.298Z,66.29
2023-03-15T05:39:22.984Z,66.14
2023-03-15T05:42:10.606Z,65.92
2023-03-15T05:45:09.759Z,65.94
2023-03-15T05:48:04.403Z,65.33
2023-03-15T05:50:42.510Z,64.39
2023-03-15T05:53:27.081Z,64.47
2023-03-15T05:56:12.602Z,63.95
2023-03-15T05:59:03.070Z,64.11
2023-03-15T06:02:10.365Z,63.09
2023-03-15T06:04:46.434Z,63.24
2023-03-15T06:07:18.118Z,63.77
2023-03-15T06:09:46.177Z,62.79
2023-03-15T06:12:13.826Z,62.63
2023-03-15T06:14:41.962Z,62.51
2023-03-15T06:17:11.135Z,62.68
2023-03-15T06:19:39.257Z,63.01
2023-03-15T06:22:06.678Z,62.91
2023-03-15T06:24:42.307Z,62.35
2023-03-15T06:27:09.700Z,62.04
2023-03-15T06:29:37.272Z,62.67
2023-03-15T06:32:05.472Z,62.66
2023-03-15T06:34:36.246Z,63.42
2023-03-15T06:37:03.652Z,62.51
2023-03-15T06:39:34.456Z,63.11
2023-03-15T06:42:02.775Z,62.41
2023-03-15T06:44:33.249Z,63.63
2023-03-15T06:47:04.821Z,62.74
2023-03-15T06:49:32.770Z,62.79
2023-03-15T06:52:03.993Z,63.55
2023-03-15T06:54:31.529Z,62.66
2023-03-15T06:57:00.042Z,63.12
2023-03-15T06:59:27.243Z,63.63
2023-03-15T07:01:54.544Z,63.12
2023-03-15T07:04:22.339Z,63.65
2023-03-15T07:06:49.639Z,63.74
2023-03-15T07:09:18.632Z,62.99
2023-03-15T07:11:45.956Z,63.03
2023-03-15T07:14:13.334Z,63.15
2023-03-15T07:16:40.785Z,63.91
2023-03-15T07:19:08.455Z,63.80
2023-03-15T07:21:35.781Z,63.89
2023-03-15T07:24:03.197Z,64.03
2023-03-15T07:26:31.922Z,63.35
2023-03-15T07:28:59.200Z,64.27
2023-03-15T07:31:27.125Z,64.02
2023-03-15T07:33:54.504Z,63.62
2023-03-15T07:36:22.402Z,63.92
2023-03-15T07:38:49.860Z,62.88
2023-03-15T07:41:17.540Z,62.88
2023-03-15T07:43:59.910Z,62.32
2023-03-15T07:46:27.322Z,62.63
2023-03-15T07:48:54.659Z,62.27
2023-03-15T07:51:22.085Z,62.03
2023-03-15T07:53:49.352Z,62.18
2023-03-15T07:56:16.891Z,62.26
2023-03-15T07:58:44.214Z,61.88
2023-03-15T08:01:12.986Z,61.84
2023-03-15T08:03:40.315Z,61.84
2023-03-15T08:06:08.320Z,62.21
2023-03-15T08:08:35.755Z,62.63
2023-03-15T08:11:05.512Z,63.04
2023-03-15T08:13:32.884Z,62.47
2023-03-15T08:16:00.321Z,63.17
2023-03-15T08:18:29.153Z,63.11
2023-03-15T08:20:57.069Z,63.18
2023-03-15T08:23:24.474Z,62.82
2023-03-15T08:25:51.747Z,63.27
2023-03-15T08:28:19.193Z,62.86
2023-03-15T08:30:46.732Z,63.61
2023-03-15T08:33:14.024Z,63.47
2023-03-15T08:35:42.881Z,63.57
2023-03-15T08:38:10.277Z,62.85
2023-03-15T08:40:39.897Z,63.22
2023-03-15T08:43:07.322Z,63.77
2023-03-15T08:45:51.085Z,63.43
2023-03-15T08:48:22.321Z,64.13
2023-03-15T08:50:50.930Z,64.25
2023-03-15T08:53:18.499Z,64.09
2023-03-15T08:55:45.881Z,64.37
2023-03-15T08:58:14.485Z,63.51
2023-03-15T09:00:41.792Z,64.36
2023-03-15T09:03:09.062Z,64.78
2023-03-15T09:05:37.172Z,64.57
2023-03-15T09:08:05.923Z,63.73
2023-03-15T09:10:51.641Z,64.17
2023-03-15T09:13:18.515Z,63.93
2023-03-15T09:15:46.124Z,63.83
2023-03-15T09:18:13.516Z,64.21
2023-03-15T09:20:41.375Z,64.39
2023-03-15T09:23:10.504Z,64.58
2023-03-15T09:25:37.792Z,64.03
2023-03-15T09:28:05.586Z,64.08
2023-03-15T09:30:33.179Z,64.71
2023-03-15T09:33:00.925Z,64.65
2023-03-15T09:35:28.580Z,64.45
2023-03-15T09:37:56.422Z,64.20
2023-03-15T09:40:28.628Z,63.98
2023-03-15T09:43:11.998Z,63.82
2023-03-15T09:45:54.177Z,63.51
2023-03-15T09:48:28.316Z,63.16
2023-03-15T09:51:03.855Z,63.14
2023-03-15T09:53:36.333Z,63.11
2023-03-15T09:56:18.879Z,62.73
2023-03-15T09:58:47.450Z,62.68
2023-03-15T10:01:17.072Z,62.86
2023-03-15T10:03:49.495Z,62.24
2023-03-15T10:06:17.628Z,62.10
2023-03-15T10:08:46.192Z,61.97
2023-03-15T10:11:20.151Z,61.66
2023-03-15T10:14:00.812Z,61.61
2023-03-15T10:16:39.354Z,61.50
2023-03-15T10:19:15.610Z,61.41
2023-03-15T10:21:52.294Z,61.11
2023-03-15T10:24:24.549Z,61.17
2023-03-15T10:26:54.241Z,61.22
2023-03-15T10:29:25.473Z,61.50
2023-03-15T10:31:54.513Z,61.48
2023-03-15T10:34:22.997Z,62.04
2023-03-15T10:36:55.531Z,61.93
2023-03-15T10:39:25.140Z,61.93
2023-03-15T10:41:53.917Z,62.09
2023-03-15T10:44:23.509Z,62.28
2023-03-15T10:47:05.046Z,62.23
2023-03-15T10:49:38.962Z,62.04
2023-03-15T10:52:06.746Z,62.01
2023-03-15T10:54:35.731Z,62.25
2023-03-15T10:57:12.192Z,62.18
2023-03-15T10:59:54.851Z,62.27
2023-03-15T11:02:24.852Z,61.86
2023-03-15T11:05:03.408Z,61.57
2023-03-15T11:07:35.640Z,61.85
2023-03-15T11:10:05.572Z,61.93
2023-03-15T11:12:35.370Z,61.41
2023-03-15T11:15:08.004Z,61.63
2023-03-15T11:17:41.607Z,61.83
2023-03-15T11:20:23.394Z,61.68
2023-03-15T11:22:51.917Z,61.76
2023-03-15T11:25:22.348Z,61.36
2023-03-15T11:27:53.794Z,61.01
2023-03-15T11:30:27.440Z,60.89
2023-03-15T11:32:55.621Z,60.80
2023-03-15T11:35:26.464Z,60.63
2023-03-15T11:38:06.232Z,60.86
2023-03-15T11:40:42.523Z,60.74
2023-03-15T11:43:17.944Z,61.24
2023-03-15T11:45:51.572Z,61.00
2023-03-15T11:48:48.573Z,60.91
2023-03-15T11:51:16.312Z,60.90
2023-03-15T11:53:48.304Z,60.35
2023-03-15T11:56:24.919Z,60.62
2023-03-15T11:59:06.995Z,60.54
2023-03-15T12:01:35.476Z,60.83
2023-03-15T12:04:28.925Z,60.91
2023-03-15T12:06:57.358Z,61.08
2023-03-15T12:09:48.492Z,61.17
2023-03-15T12:12:44.969Z,61.39
2023-03-15T12:15:46.136Z,61.49
2023-03-15T12:18:24.949Z,61.85
2023-03-15T12:21:07.860Z,61.78
2023-03-15T12:23:40.819Z,62.11
2023-03-15T12:26:15.774Z,61.70
2023-03-15T12:28:51.279Z,61.96
2023-03-15T12:31:20.837Z,62.40
2023-03-15T12:33:50.874Z,62.30
2023-03-15T12:36:32.631Z,62.77
2023-03-15T12:39:03.113Z,62.90
2023-03-15T12:41:36.506Z,62.58
2023-03-15T12:44:25.297Z,62.73
2023-03-15T12:46:59.050Z,62.95
2023-03-15T12:49:35.698Z,62.69
2023-03-15T12:52:04.916Z,62.82
2023-03-15T12:54:40.502Z,62.42
2023-03-15T12:57:11.266Z,62.58
2023-03-15T12:59:47.259Z,61.83
2023-03-15T13:02:42.104Z,61.62
2023-03-15T13:05:17.582Z,60.78
2023-03-15T13:08:08.493Z,59.45
2023-03-15T13:10:46.885Z,59.39
2023-03-15T13:13:29.530Z,58.62
2023-03-15T13:16:16.995Z,58.08
2023-03-15T13:18:54.419Z,58.10
2023-03-15T13:21:27.238Z,57.58
2023-03-15T13:23:58.287Z,57.55
2023-03-15T13:26:40.239Z,57.28
2023-03-15T13:29:15.092Z,56.80
2023-03-15T13:31:44.174Z,57.05
2023-03-15T13:34:16.181Z,56.80
2023-03-15T13:36:46.546Z,56.44
2023-03-15T13:39:23.470Z,55.85
2023-03-15T13:41:57.045Z,55.13
2023-03-15T13:44:25.496Z,55.28
2023-03-15T13:46:53.955Z,55.41
2023-03-15T13:49:23.488Z,56.06
2023-03-15T13:51:53.289Z,56.64
2023-03-15T13:54:25.125Z,56.41
2023-03-15T13:57:00.707Z,56.47
2023-03-15T13:59:32.784Z,57.02
2023-03-15T14:02:02.984Z,57.77
2023-03-15T14:04:35.626Z,58.49
2023-03-15T14:07:23.644Z,59.15
2023-03-15T14:10:23.247Z,59.63
2023-03-15T14:12:51.953Z,59.93
2023-03-15T14:15:21.001Z,60.20
2023-03-15T14:17:54.768Z,60.16
2023-03-15T14:20:28.652Z,60.86
2023-03-15T14:23:00.992Z,60.97
2023-03-15T14:25:28.688Z,61.34
2023-03-15T14:28:00.811Z,61.67
2023-03-15T14:30:29.760Z,61.59
2023-03-15T14:32:59.119Z,61.52
2023-03-15T14:35:31.211Z,62.23
2023-03-15T14:38:03.306Z,62.47
2023-03-15T14:40:35.530Z,62.68
2023-03-15T14:43:03.545Z,62.91
2023-03-15T14:45:32.199Z,62.86
2023-03-15T14:48:04.224Z,62.34
2023-03-15T14:50:36.232Z,62.71
2023-03-15T14:53:04.845Z,63.31
2023-03-15T14:55:35.050Z,63.25
2023-03-15T14:58:02.507Z,62.92
2023-03-15T15:00:30.334Z,63.67
2023-03-15T15:02:58.453Z,63.66
2023-03-15T15:05:28.284Z,63.73
2023-03-15T15:08:02.310Z,63.57
2023-03-15T15:10:30.789Z,63.72
2023-03-15T15:13:05.935Z,64.47
2023-03-15T15:15:47.345Z,64.40
2023-03-15T15:18:21.994Z,65.06
2023-03-15T15:20:51.599Z,64.41
2023-03-15T15:23:22.446Z,65.30
2023-03-15T15:25:52.099Z,65.38
2023-03-15T15:28:33.233Z,66.01
2023-03-15T15:31:02.414Z,65.45
2023-03-15T15:33:29.747Z,66.22
2023-03-15T15:35:58.179Z,65.47
2023-03-15T15:38:38.567Z,65.56
2023-03-15T15:41:11.731Z,66.22
2023-03-15T15:43:39.346Z,66.01
2023-03-15T15:46:08.525Z,66.51
2023-03-15T15:48:35.979Z,66.47
2023-03-15T15:51:03.885Z,66.68
2023-03-15T15:53:33.484Z,67.09
2023-03-15T15:56:01.013Z,67.57
2023-03-15T15:58:28.229Z,67.78
2023-03-15T16:00:55.456Z,66.81
2023-03-15T16:03:23.007Z,67.13
2023-03-15T16:05:50.354Z,68.11
2023-03-15T16:08:22.707Z,67.83
2023-03-15T16:10:51.975Z,68.58
2023-03-15T16:13:19.493Z,68.51
2023-03-15T16:15:48.340Z,68.47
2023-03-15T16:18:15.770Z,67.97
2023-03-15T16:20:43.371Z,68.60
2023-03-15T16:23:16.800Z,69.15
2023-03-15T16:25:47.847Z,69.31
2023-03-15T16:28:16.924Z,68.31
2023-03-15T16:30:46.676Z,69.39
2023-03-15T16:33:16.506Z,68.80
2023-03-15T16:35:44.648Z,68.82
2023-03-15T16:38:15.925Z,69.42
2023-03-15T16:40:45.166Z,69.55
2023-03-15T16:43:13.896Z,68.81
2023-03-15T16:45:42.792Z,68.69
2023-03-15T16:48:12.053Z,68.58
2023-03-15T16:50:41.024Z,69.57
2023-03-15T16:53:10.808Z,69.13
2023-03-15T16:55:38.044Z,69.16
2023-03-15T16:58:14.735Z,68.82
2023-03-15T17:00:45.037Z,68.64
2023-03-15T17:03:13.205Z,67.91
2023-03-15T17:05:41.760Z,68.53
2023-03-15T17:08:13.284Z,68.39
2023-03-15T17:10:42.260Z,68.55
2023-03-15T17:13:13.553Z,67.64
2023-03-15T17:15:41.075Z,67.99
2023-03-15T17:18:16.863Z,68.05
2023-03-15T17:20:45.027Z,67.79
2023-03-15T17:23:13.012Z,67.54
2023-03-15T17:25:41.344Z,67.80
2023-03-15T17:28:08.826Z,67.16
2023-03-15T17:30:37.532Z,66.86
2023-03-15T17:33:05.797Z,66.93
2023-03-15T17:35:37.286Z,67.23
2023-03-15T17:38:06.891Z,67.48
2023-03-15T17:40:36.477Z,67.76
2023-03-15T17:43:04.893Z,67.88
2023-03-15T17:45:33.892Z,67.14
2023-03-15T17:48:02.574Z,67.39
2023-03-15T17:50:31.892Z,67.63
2023-03-15T17:53:03.435Z,67.36
2023-03-15T17:55:35.278Z,66.92
2023-03-15T17:58:03.267Z,67.09
2023-03-15T18:00:34.001Z,66.87
2023-03-15T18:03:01.802Z,66.55
2023-03-15T18:05:30.257Z,67.45
2023-03-15T18:07:59.377Z,66.87
2023-03-15T18:10:34.095Z,67.36
2023-03-15T18:13:02.388Z,66.99
2023-03-15T18:15:30.186Z,67.41
2023-03-15T18:17:58.338Z,67.45
2023-03-15T18:20:26.167Z,66.99
2023-03-15T18:22:53.748Z,67.01
2023-03-15T18:25:23.401Z,66.67
2023-03-15T18:27:52.766Z,67.62
2023-03-15T18:30:22.802Z,67.52
2023-03-15T18:32:51.770Z,67.77
2023-03-15T18:35:22.238Z,67.17
2023-03-15T18:37:49.707Z,67.51
2023-03-15T18:40:19.505Z,67.93
2023-03-15T18:42:46.773Z,67.06
2023-03-15T18:45:18.784Z,67.64
2023-03-15T18:47:46.507Z,67.71
2023-03-15T18:50:14.517Z,67.99
2023-03-15T18:52:42.570Z,68.28
2023-03-15T18:55:15.560Z,67.98
2023-03-15T18:57:43.560Z,67.88
2023-03-15T19:00:13.786Z,67.46
2023-03-15T19:02:44.691Z,68.03
2023-03-15T19:05:14.313Z,67.86
2023-03-15T19:07:46.051Z,67.36
2023-03-15T19:10:16.899Z,67.74
2023-03-15T19:12:44.955Z,68.09
2023-03-15T19:15:15.377Z,67.72
2023-03-15T19:17:44.521Z,68.13
2023-03-15T19:20:16.389Z,68.42
2023-03-15T19:22:45.198Z,68.11
2023-03-15T19:25:14.055Z,68.12
2023-03-15T19:27:42.385Z,68.36
2023-03-15T19:30:14.503Z,68.65
2023-03-15T19:32:43.573Z,68.85
2023-03-15T19:35:10.937Z,68.93
2023-03-15T19:37:38.502Z,68.66
2023-03-15T19:40:09.351Z,69.50
2023-03-15T19:42:36.794Z,68.87
2023-03-15T19:45:05.422Z,68.98
2023-03-15T19:47:32.650Z,69.68
2023-03-15T19:50:02.214Z,70.17
2023-03-15T19:52:33.265Z,69.58
2023-03-15T19:55:04.557Z,69.68
2023-03-15T19:57:32.400Z,69.48
2023-03-15T19:59:59.643Z,70.03
2023-03-15T20:02:26.964Z,69.75
2023-03-15T20:04:54.235Z,70.25
2023-03-15T20:07:22.988Z,70.37
2023-03-15T20:09:50.298Z,70.45
2023-03-15T20:12:17.604Z,70.61
2023-03-15T20:14:45.092Z,70.51
2023-03-15T20:17:12.398Z,71.08
2023-03-15T20:19:39.633Z,70.92
2023-03-15T20:22:06.958Z,71.56
2023-03-15T20:24:36.737Z,71.27
2023-03-15T20:27:04.273Z,71.75
2023-03-15T20:29:31.822Z,71.66
2023-03-15T20:31:59.087Z,72.38
2023-03-15T20:34:26.461Z,72.41
2023-03-15T20:36:53.758Z,74.12
2023-03-15T20:39:24.160Z,74.52
2023-03-15T20:41:52.966Z,75.33
2023-03-15T20:44:20.195Z,76.57
2023-03-15T20:46:47.654Z,77.77
2023-03-15T20:49:15.721Z,78.97
2023-03-15T20:51:42.919Z,79.94
2023-03-15T20:54:10.223Z,80.89
2023-03-15T20:56:37.672Z,81.34
2023-03-15T20:59:07.007Z,81.78
2023-03-15T21:01:35.130Z,82.58
2023-03-15T21:04:04.320Z,82.65
2023-03-15T21:06:31.776Z,83.44
2023-03-15T21:08:59.570Z,83.46
2023-03-15T21:11:28.843Z,83.76
2023-03-15T21:13:56.426Z,84.28
2023-03-15T21:16:26.417Z,84.95
2023-03-15T21:18:55.434Z,85.50
2023-03-15T21:21:23.437Z,86.26
2023-03-15T21:23:51.243Z,86.16
2023-03-15T21:26:19.121Z,86.94
2023-03-15T21:28:47.012Z,87.20
2023-03-15T21:31:15.619Z,87.90
2023-03-15T21:33:44.985Z,88.03
2023-03-15T21:36:12.226Z,88.70
2023-03-15T21:38:39.558Z,88.90
2023-03-15T21:41:09.250Z,89.13
2023-03-15T21:43:37.835Z,89.75
2023-03-15T21:46:07.531Z,89.20
2023-03-15T21:48:35.519Z,89.64
2023-03-15T21:51:04.506Z,89.83
2023-03-15T21:53:34.125Z,89.90
2023-03-15T21:56:04.530Z,90.30
2023-03-15T21:58:32.262Z,90.65
2023-03-15T22:01:01.328Z,90.50
2023-03-15T22:03:29.560Z,90.37
2023-03-15T22:05:57.263Z,90.19
2023-03-15T22:08:26.377Z,90.25
2023-03-15T22:10:54.241Z,90.09
2023-03-15T22:13:21.942Z,90.13
2023-03-15T22:15:49.493Z,89.96
2023-03-15T22:18:19.767Z,89.76
2023-03-15T22:20:48.728Z,90.10
2023-03-15T22:23:16.470Z,89.75
2023-03-15T22:25:45.216Z,89.53
2023-03-15T22:28:12.989Z,89.64
2023-03-15T22:30:40.359Z,89.50
2023-03-15T22:33:08.008Z,89.60
2023-03-15T22:35:35.440Z,89.58
2023-03-15T22:38:10.356Z,89.85
2023-03-15T22:40:39.406Z,89.68
2023-03-15T22:43:09.187Z,89.78
2023-03-15T22:45:36.771Z,89.44
2023-03-15T22:48:04.450Z,89.66
2023-03-15T22:50:31.839Z,89.54
2023-03-15T22:52:59.060Z,89.73
2023-03-15T22:55:26.494Z,89.48
2023-03-15T22:57:54.120Z,89.84
2023-03-15T23:00:25.632Z,89.86
2023-03-15T23:02:53.027Z,89.89
2023-03-15T23:05:20.754Z,89.60
2023-03-15T23:07:48.125Z,89.73
2023-03-15T23:10:16.032Z,89.37
2023-03-15T23:12:43.440Z,89.47
2023-03-15T23:15:14.271Z,89.33
2023-03-15T23:17:46.984Z,89.62
2023-03-15T23:20:14.776Z,89.64
2023-03-15T23:22:42.397Z,89.89
2023-03-15T23:25:10.815Z,89.89
2023-03-15T23:27:39.674Z,90.14
2023-03-15T23:30:08.489Z,90.11
2023-03-15T23:32:38.888Z,89.96
2023-03-15T23:35:12.335Z,90.44
2023-03-15T23:37:40.065Z,90.00
2023-03-15T23:40:12.794Z,90.18
2023-03-15T23:42:42.131Z,90.61
2023-03-15T23:45:13.584Z,90.75
2023-03-15T23:47:41.609Z,90.73
2023-03-15T23:50:12.798Z,90.71
2023-03-15T23:52:41.382Z,90.99
2023-03-15T23:55:09.676Z,90.81
2023-03-15T23:57:36.916Z,91.14
